createdAt,value
2022-09-01T00:00:56.736Z,17.05
2022-09-01T00:01:58.455Z,17.04
2022-09-01T00:03:00.312Z,17.03
2022-09-01T00:04:02.006Z,17.01
2022-09-01T00:05:03.636Z,17.01
2022-09-01T00:06:05.355Z,16.99
2022-09-01T00:07:07.099Z,16.98
2022-09-01T00:08:08.829Z,16.97
2022-09-01T00:09:10.606Z,16.97
2022-09-01T00:10:12.260Z,16.95
2022-09-01T00:11:13.984Z,16.93
2022-09-01T00:12:15.724Z,16.93
2022-09-01T00:13:17.460Z,16.92
2022-09-01T00:14:30.136Z,16.9
2022-09-01T00:15:20.888Z,16.9
2022-09-01T00:16:22.647Z,16.89
2022-09-01T00:17:24.336Z,16.88
2022-09-01T00:18:26.090Z,16.88
2022-09-01T00:19:12.572Z,16.87
2022-09-01T00:20:18.211Z,16.86
2022-09-01T00:21:15.838Z,16.85
2022-09-01T00:22:17.549Z,16.84
2022-09-01T00:23:19.285Z,16.83
2022-09-01T00:24:20.981Z,16.81
2022-09-01T00:25:22.706Z,16.8
2022-09-01T00:26:24.454Z,16.79
2022-09-01T00:27:27.872Z,16.77
2022-09-01T00:28:30.414Z,16.77
2022-09-01T00:29:29.636Z,16.75
2022-09-01T00:30:31.329Z,16.74
2022-09-01T00:31:33.217Z,16.72
2022-09-01T00:32:34.813Z,16.72
2022-09-01T00:33:36.537Z,16.71
2022-09-01T00:34:38.269Z,16.69
2022-09-01T00:35:39.975Z,16.68
2022-09-01T00:36:41.705Z,16.67
2022-09-01T00:37:43.413Z,16.65
2022-09-01T00:38:45.152Z,16.65
2022-09-01T00:39:46.870Z,16.63
2022-09-01T00:40:48.679Z,16.62
2022-09-01T00:41:50.374Z,16.6
2022-09-01T00:42:52.060Z,16.58
2022-09-01T00:43:53.782Z,16.58
2022-09-01T00:44:55.484Z,16.56
2022-09-01T00:45:57.278Z,16.55
2022-09-01T00:46:59.738Z,16.53
2022-09-01T00:48:00.702Z,16.52
2022-09-01T00:49:02.412Z,16.52
2022-09-01T00:50:04.125Z,16.51
2022-09-01T00:51:05.881Z,16.5
2022-09-01T00:52:07.571Z,16.48
2022-09-01T00:53:09.313Z,16.47
2022-09-01T00:54:11.027Z,16.46
2022-09-01T00:55:12.759Z,16.45
2022-09-01T00:56:14.480Z,16.44
2022-09-01T00:57:16.212Z,16.43
2022-09-01T00:58:19.425Z,16.42
2022-09-01T00:59:19.702Z,16.41
2022-09-01T01:00:21.391Z,16.41
2022-09-01T01:01:23.133Z,16.39
2022-09-01T01:02:24.882Z,16.39
2022-09-01T01:03:26.568Z,16.37
2022-09-01T01:04:28.283Z,16.37
2022-09-01T01:05:30.009Z,16.36
2022-09-01T01:06:32.238Z,16.35
2022-09-01T01:07:33.514Z,16.33
2022-09-01T01:08:35.182Z,16.32
2022-09-01T01:09:36.926Z,16.31
2022-09-01T01:10:38.627Z,16.3
2022-09-01T01:11:40.343Z,16.29
2022-09-01T01:12:42.088Z,16.29
2022-09-01T01:13:43.806Z,16.28
2022-09-01T01:14:45.938Z,16.28
2022-09-01T01:15:47.275Z,16.28
2022-09-01T01:16:48.991Z,16.28
2022-09-01T01:17:50.722Z,16.28
2022-09-01T01:18:52.424Z,16.27
2022-09-01T01:19:54.176Z,16.26
2022-09-01T01:20:55.891Z,16.26
2022-09-01T01:21:57.600Z,16.25
2022-09-01T01:22:59.338Z,16.25
2022-09-01T01:24:01.069Z,16.24
2022-09-01T01:25:02.812Z,16.23
2022-09-01T01:26:04.522Z,16.23
2022-09-01T01:27:06.242Z,16.23
2022-09-01T01:28:07.988Z,16.22
2022-09-01T01:29:09.699Z,16.22
2022-09-01T01:30:11.416Z,16.21
2022-09-01T01:31:13.250Z,16.21
2022-09-01T01:32:14.855Z,16.22
2022-09-01T01:33:16.627Z,16.2
2022-09-01T01:34:18.304Z,16.2
2022-09-01T01:35:20.031Z,16.2
2022-09-01T01:36:21.778Z,16.2
2022-09-01T01:37:23.490Z,16.19
2022-09-01T01:38:25.219Z,16.18
2022-09-01T01:39:26.948Z,16.19
2022-09-01T01:40:28.706Z,16.18
2022-09-01T01:41:30.402Z,16.19
2022-09-01T01:42:32.162Z,16.17
2022-09-01T01:43:33.842Z,16.17
2022-09-01T01:44:35.579Z,16.17
2022-09-01T01:45:37.340Z,16.16
2022-09-01T01:46:39.025Z,16.15
2022-09-01T01:47:40.748Z,16.15
2022-09-01T01:48:42.489Z,16.15
2022-09-01T01:49:44.198Z,16.14
2022-09-01T01:50:45.938Z,16.14
2022-09-01T01:51:47.646Z,16.14
2022-09-01T01:52:49.396Z,16.13
2022-09-01T01:53:51.106Z,16.13
2022-09-01T01:54:52.807Z,16.12
2022-09-01T01:55:54.566Z,16.12
2022-09-01T01:56:56.266Z,16.11
2022-09-01T01:57:57.984Z,16.11
2022-09-01T01:58:59.712Z,16.1
2022-09-01T02:00:01.448Z,16.1
2022-09-01T02:01:08.237Z,16.09
2022-09-01T02:02:04.990Z,16.08
2022-09-01T02:03:06.654Z,16.07
2022-09-01T02:04:08.366Z,16.07
2022-09-01T02:05:10.078Z,16.06
2022-09-01T02:06:11.831Z,16.06
2022-09-01T02:07:13.645Z,16.06
2022-09-01T02:08:15.255Z,16.05
2022-09-01T02:09:16.994Z,16.04
2022-09-01T02:10:18.718Z,16.04
2022-09-01T02:11:20.429Z,16.03
2022-09-01T02:12:22.147Z,16.03
2022-09-01T02:13:23.861Z,16.02
2022-09-01T02:14:25.585Z,16.01
2022-09-01T02:15:27.317Z,16.01
2022-09-01T02:16:29.123Z,15.99
2022-09-01T02:17:30.774Z,15.98
2022-09-01T02:18:32.503Z,15.98
2022-09-01T02:19:34.231Z,15.98
2022-09-01T02:20:35.965Z,15.98
2022-09-01T02:21:37.695Z,15.96
2022-09-01T02:22:39.400Z,15.95
2022-09-01T02:23:41.143Z,15.95
2022-09-01T02:24:42.864Z,15.94
2022-09-01T02:26:05.004Z,15.94
2022-09-01T02:26:46.324Z,15.94
2022-09-01T02:27:48.029Z,15.93
2022-09-01T02:28:54.774Z,15.93
2022-09-01T02:29:51.486Z,15.93
2022-09-01T02:30:53.310Z,15.93
2022-09-01T02:31:55.117Z,15.93
2022-09-01T02:32:56.673Z,15.92
2022-09-01T02:33:58.394Z,15.92
2022-09-01T02:35:00.140Z,15.9
2022-09-01T02:36:01.828Z,15.9
2022-09-01T02:37:03.549Z,15.9
2022-09-01T02:38:05.287Z,15.88
2022-09-01T02:39:08.132Z,15.88
2022-09-01T02:40:10.117Z,15.87
2022-09-01T02:41:10.481Z,15.86
2022-09-01T02:42:12.257Z,15.85
2022-09-01T02:43:13.959Z,15.85
2022-09-01T02:44:15.649Z,15.85
2022-09-01T02:45:17.398Z,15.84
2022-09-01T02:46:19.161Z,15.84
2022-09-01T02:47:20.846Z,15.83
2022-09-01T02:48:22.552Z,15.83
2022-09-01T02:49:24.268Z,15.83
2022-09-01T02:50:26.022Z,15.81
2022-09-01T02:51:27.754Z,15.8
2022-09-01T02:52:29.438Z,15.78
2022-09-01T02:53:31.153Z,15.78
2022-09-01T02:54:32.994Z,15.76
2022-09-01T02:55:34.599Z,15.75
2022-09-01T02:56:36.349Z,15.74
2022-09-01T02:57:38.049Z,15.74
2022-09-01T02:58:39.784Z,15.73
2022-09-01T02:59:43.820Z,15.73
2022-09-01T03:00:43.503Z,15.72
2022-09-01T03:01:44.971Z,15.72
2022-09-01T03:02:46.706Z,15.7
2022-09-01T03:03:48.400Z,15.69
2022-09-01T03:04:50.170Z,15.68
2022-09-01T03:05:51.885Z,15.67
2022-09-01T03:06:53.616Z,15.66
2022-09-01T03:07:55.327Z,15.66
2022-09-01T03:08:57.038Z,15.65
2022-09-01T03:09:58.764Z,15.65
2022-09-01T03:11:00.484Z,15.64
2022-09-01T03:12:02.225Z,15.62
2022-09-01T03:13:03.984Z,15.63
2022-09-01T03:14:05.664Z,15.61
2022-09-01T03:15:07.400Z,15.61
2022-09-01T03:16:09.225Z,15.61
2022-09-01T03:17:10.845Z,15.59
2022-09-01T03:18:12.645Z,15.58
2022-09-01T03:19:14.307Z,15.57
2022-09-01T03:20:16.028Z,15.57
2022-09-01T03:21:17.759Z,15.57
2022-09-01T03:22:19.478Z,15.56
2022-09-01T03:23:21.215Z,15.54
2022-09-01T03:24:22.914Z,15.54
2022-09-01T03:25:24.635Z,15.53
2022-09-01T03:26:26.397Z,15.52
2022-09-01T03:27:28.090Z,15.51
2022-09-01T03:28:29.820Z,15.5
2022-09-01T03:29:31.560Z,15.49
2022-09-01T03:30:33.303Z,15.49
2022-09-01T03:31:35.015Z,15.48
2022-09-01T03:32:36.728Z,15.48
2022-09-01T03:33:38.465Z,15.47
2022-09-01T03:34:40.185Z,15.45
2022-09-01T03:35:41.913Z,15.46
2022-09-01T03:36:43.616Z,15.44
2022-09-01T03:37:45.344Z,15.44
2022-09-01T03:38:47.087Z,15.43
2022-09-01T03:39:48.821Z,15.42
2022-09-01T03:40:50.544Z,15.41
2022-09-01T03:41:52.272Z,15.4
2022-09-01T03:42:53.971Z,15.4
2022-09-01T03:43:55.689Z,15.4
2022-09-01T03:44:57.464Z,15.39
2022-09-01T03:45:59.243Z,15.38
2022-09-01T03:47:00.889Z,15.38
2022-09-01T03:48:02.597Z,15.37
2022-09-01T03:49:04.342Z,15.37
2022-09-01T03:50:06.076Z,15.36
2022-09-01T03:51:07.806Z,15.35
2022-09-01T03:52:09.501Z,15.34
2022-09-01T03:53:11.231Z,15.33
2022-09-01T03:54:12.980Z,15.33
2022-09-01T03:55:14.693Z,15.31
2022-09-01T03:56:16.393Z,15.32
2022-09-01T03:57:18.145Z,15.32
2022-09-01T03:58:19.878Z,15.31
2022-09-01T03:59:21.584Z,15.31
2022-09-01T04:00:23.341Z,15.3
2022-09-01T04:01:25.150Z,15.3
2022-09-01T04:02:26.889Z,15.28
2022-09-01T04:03:31.021Z,15.28
2022-09-01T04:04:30.215Z,15.27
2022-09-01T04:05:31.941Z,15.26
2022-09-01T04:06:33.678Z,15.25
2022-09-01T04:07:35.372Z,15.24
2022-09-01T04:08:37.105Z,15.24
2022-09-01T04:09:38.846Z,15.22
2022-09-01T04:10:40.567Z,15.23
2022-09-01T04:11:45.779Z,15.21
2022-09-01T04:12:44.005Z,15.21
2022-09-01T04:13:45.726Z,15.2
2022-09-01T04:14:47.453Z,15.2
2022-09-01T04:15:49.193Z,15.19
2022-09-01T04:16:50.988Z,15.18
2022-09-01T04:17:52.626Z,15.18
2022-09-01T04:18:55.721Z,15.18
2022-09-01T04:19:56.108Z,15.16
2022-09-01T04:20:57.822Z,15.16
2022-09-01T04:21:59.549Z,15.16
2022-09-01T04:23:01.355Z,15.15
2022-09-01T04:24:03.167Z,15.14
2022-09-01T04:25:04.720Z,15.14
2022-09-01T04:26:06.531Z,15.13
2022-09-01T04:27:08.182Z,15.13
2022-09-01T04:28:09.889Z,15.12
2022-09-01T04:29:11.628Z,15.12
2022-09-01T04:30:13.355Z,15.1
2022-09-01T04:31:15.164Z,15.1
2022-09-01T04:32:16.794Z,15.1
2022-09-01T04:33:18.522Z,15.09
2022-09-01T04:34:20.245Z,15.09
2022-09-01T04:35:21.981Z,15.08
2022-09-01T04:36:23.724Z,15.09
2022-09-01T04:37:25.407Z,15.08
2022-09-01T04:38:27.160Z,15.08
2022-09-01T04:39:28.868Z,15.08
2022-09-01T04:40:30.667Z,15.07
2022-09-01T04:41:32.405Z,15.07
2022-09-01T04:42:34.047Z,15.08
2022-09-01T04:43:35.782Z,15.08
2022-09-01T04:44:37.491Z,15.08
2022-09-01T04:45:39.284Z,15.08
2022-09-01T04:46:40.962Z,15.09
2022-09-01T04:47:42.675Z,15.1
2022-09-01T04:48:44.416Z,15.1
2022-09-01T04:48:59.899Z,15.1
2022-09-01T04:50:01.602Z,15.12
2022-09-01T04:51:04.313Z,15.12
2022-09-01T04:52:05.027Z,15.12
2022-09-01T04:53:06.744Z,15.14
2022-09-01T04:54:08.482Z,15.14
2022-09-01T04:55:10.168Z,15.14
2022-09-01T04:56:11.915Z,15.15
2022-09-01T04:57:13.654Z,15.16
2022-09-01T04:58:15.379Z,15.16
2022-09-01T04:59:17.095Z,15.16
2022-09-01T05:00:18.807Z,15.17
2022-09-01T05:01:20.633Z,15.18
2022-09-01T05:02:22.343Z,15.18
2022-09-01T05:03:24.040Z,15.18
2022-09-01T05:04:25.705Z,15.19
2022-09-01T05:05:27.464Z,15.19
2022-09-01T05:06:29.180Z,15.19
2022-09-01T05:07:30.883Z,15.2
2022-09-01T05:08:32.915Z,15.2
2022-09-01T05:09:34.342Z,15.19
2022-09-01T05:10:36.069Z,15.2
2022-09-01T05:11:37.811Z,15.21
2022-09-01T05:12:39.526Z,15.21
2022-09-01T05:13:41.234Z,15.21
2022-09-01T05:14:42.983Z,15.22
2022-09-01T05:15:44.723Z,15.21
2022-09-01T05:16:46.541Z,15.22
2022-09-01T05:17:48.142Z,15.22
2022-09-01T05:18:49.925Z,15.22
2022-09-01T05:19:51.596Z,15.22
2022-09-01T05:20:53.319Z,15.22
2022-09-01T05:21:55.086Z,15.22
2022-09-01T05:22:56.773Z,15.22
2022-09-01T05:23:58.730Z,15.22
2022-09-01T05:25:00.212Z,15.22
2022-09-01T05:26:04.981Z,15.22
2022-09-01T05:27:03.683Z,15.23
2022-09-01T05:28:05.405Z,15.23
2022-09-01T05:29:07.163Z,15.22
2022-09-01T05:30:08.841Z,15.23
2022-09-01T05:31:10.618Z,15.23
2022-09-01T05:32:12.299Z,15.24
2022-09-01T05:33:14.032Z,15.24
2022-09-01T05:34:15.763Z,15.24
2022-09-01T05:35:17.465Z,15.25
2022-09-01T05:36:19.216Z,15.25
2022-09-01T05:37:20.937Z,15.25
2022-09-01T05:38:22.663Z,15.26
2022-09-01T05:39:24.526Z,15.27
2022-09-01T05:40:26.146Z,15.28
2022-09-01T05:41:27.898Z,15.28
2022-09-01T05:42:29.587Z,15.29
2022-09-01T05:43:31.319Z,15.3
2022-09-01T05:44:33.018Z,15.32
2022-09-01T05:45:50.386Z,15.33
2022-09-01T05:46:36.540Z,15.33
2022-09-01T05:47:38.184Z,15.35
2022-09-01T05:48:40.091Z,15.36
2022-09-01T05:49:41.637Z,15.37
2022-09-01T05:50:43.376Z,15.39
2022-09-01T05:51:46.035Z,15.39
2022-09-01T05:52:15.974Z,15.4
2022-09-01T05:53:17.661Z,15.42
2022-09-01T05:54:19.402Z,15.43
2022-09-01T05:55:21.244Z,15.43
2022-09-01T05:56:22.861Z,15.46
2022-09-01T05:57:34.225Z,15.46
2022-09-01T05:58:26.691Z,15.48
2022-09-01T05:59:28.042Z,15.5
2022-09-01T06:00:29.734Z,15.5
2022-09-01T06:01:31.496Z,15.51
2022-09-01T06:02:33.282Z,15.52
2022-09-01T06:03:38.251Z,15.54
2022-09-01T06:04:36.652Z,15.55
2022-09-01T06:05:38.371Z,15.56
2022-09-01T06:06:49.015Z,15.57
2022-09-01T06:07:41.832Z,15.59
2022-09-01T06:08:46.726Z,15.59
2022-09-01T06:09:45.297Z,15.6
2022-09-01T06:10:47.008Z,15.62
2022-09-01T06:11:48.736Z,15.63
2022-09-01T06:12:50.454Z,15.64
2022-09-01T06:13:55.272Z,15.65
2022-09-01T06:14:53.894Z,15.66
2022-09-01T06:15:55.696Z,15.67
2022-09-01T06:16:57.369Z,15.69
2022-09-01T06:17:59.084Z,15.7
2022-09-01T06:19:00.809Z,15.72
2022-09-01T06:20:02.529Z,15.73
2022-09-01T06:21:04.270Z,15.75
2022-09-01T06:22:05.983Z,15.76
2022-09-01T06:23:07.710Z,15.77
2022-09-01T06:24:09.462Z,15.79
2022-09-01T06:25:11.134Z,15.81
2022-09-01T06:26:12.870Z,15.82
2022-09-01T06:27:14.610Z,15.83
2022-09-01T06:28:16.343Z,15.85
2022-09-01T06:29:18.057Z,15.86
2022-09-01T06:30:23.422Z,15.87
2022-09-01T06:31:21.623Z,15.89
2022-09-01T06:32:23.241Z,15.91
2022-09-01T06:33:25.006Z,15.91
2022-09-01T06:34:26.700Z,15.92
2022-09-01T06:35:28.400Z,15.93
2022-09-01T06:36:34.875Z,15.94
2022-09-01T06:37:42.651Z,15.95
2022-09-01T06:38:46.610Z,15.97
2022-09-01T06:39:48.300Z,15.99
2022-09-01T06:40:51.188Z,16.01
2022-09-01T06:41:51.754Z,16.02
2022-09-01T06:42:53.497Z,16.04
2022-09-01T06:43:55.207Z,16.04
2022-09-01T06:44:56.926Z,16.06
2022-09-01T06:45:58.662Z,16.08
2022-09-01T06:47:00.483Z,16.1
2022-09-01T06:48:02.106Z,16.11
2022-09-01T06:49:03.859Z,16.13
2022-09-01T06:50:05.559Z,16.13
2022-09-01T06:51:17.462Z,16.15
2022-09-01T06:52:09.088Z,16.18
2022-09-01T06:53:35.131Z,16.19
2022-09-01T06:54:12.445Z,16.21
2022-09-01T06:55:14.185Z,16.23
2022-09-01T06:56:15.921Z,16.25
2022-09-01T06:58:21.476Z,16.28
2022-09-01T06:59:21.085Z,16.29
2022-09-01T07:00:22.840Z,16.31
2022-09-01T07:01:24.636Z,16.32
2022-09-01T07:03:27.989Z,16.37
2022-09-01T07:04:29.738Z,16.39
2022-09-01T07:06:01.393Z,16.41
2022-09-01T07:06:59.923Z,16.42
2022-09-01T07:08:05.314Z,16.43
2022-09-01T07:09:19.866Z,16.44
2022-09-01T07:09:46.926Z,16.46
2022-09-01T07:11:19.572Z,16.47
2022-09-01T07:12:24.664Z,16.48
2022-09-01T07:13:05.353Z,16.49
2022-09-01T07:14:15.804Z,16.5
2022-09-01T07:16:53.317Z,16.52
2022-09-01T07:17:52.169Z,16.54
2022-09-01T07:18:58.856Z,16.55
2022-09-01T07:19:55.607Z,16.55
2022-09-01T07:21:35.852Z,16.56
2022-09-01T07:22:07.912Z,16.57
2022-09-01T07:23:04.749Z,16.59
2022-09-01T07:25:12.850Z,16.6
2022-09-01T07:26:05.954Z,16.61
2022-09-01T07:27:07.385Z,16.62
2022-09-01T07:29:01.288Z,16.65
2022-09-01T07:30:02.611Z,16.66
2022-09-01T07:34:39.026Z,16.72
2022-09-01T07:35:11.873Z,16.72
2022-09-01T07:36:29.478Z,16.73
2022-09-01T07:38:46.950Z,16.75
2022-09-01T07:39:49.001Z,16.78
2022-09-01T07:39:58.332Z,16.34
2022-09-01T07:42:56.656Z,16.6
2022-09-01T07:43:35.362Z,16.85
2022-09-01T07:44:37.029Z,16.85
2022-09-01T07:45:47.300Z,16.88
2022-09-01T07:46:40.525Z,16.9
2022-09-01T07:47:53.810Z,16.92
2022-09-01T07:49:03.082Z,16.93
2022-09-01T07:50:11.339Z,16.95
2022-09-01T07:51:49.130Z,17
2022-09-01T07:52:50.829Z,17.02
2022-09-01T07:53:52.545Z,17.05
2022-09-01T07:54:54.261Z,17.07
2022-09-01T07:55:55.984Z,17.08
2022-09-01T07:56:57.728Z,17.11
2022-09-01T07:57:59.453Z,17.13
2022-09-01T07:59:01.176Z,17.15
2022-09-01T08:00:02.908Z,17.17
2022-09-01T08:01:04.622Z,17.18
2022-09-01T08:02:06.451Z,17.19
2022-09-01T08:03:08.161Z,17.2
2022-09-01T08:04:09.823Z,17.21
2022-09-01T08:05:11.543Z,17.23
2022-09-01T08:06:13.241Z,17.24
2022-09-01T08:07:16.032Z,17.25
2022-09-01T08:08:21.000Z,17.28
2022-09-01T08:09:33.049Z,17.31
2022-09-01T08:10:20.504Z,17.34
2022-09-01T08:11:40.089Z,17.37
2022-09-01T08:12:28.815Z,17.39
2022-09-01T08:13:26.024Z,17.42
2022-09-01T08:14:27.059Z,17.49
2022-09-01T08:16:06.285Z,17.51
2022-09-01T08:16:39.438Z,17.54
2022-09-01T08:17:34.799Z,17.58
2022-09-01T08:18:48.074Z,17.61
2022-09-01T08:19:35.691Z,17.66
2022-09-01T08:20:37.391Z,17.7
2022-09-01T08:21:39.115Z,17.73
2022-09-01T08:22:40.841Z,17.76
2022-09-01T08:23:42.555Z,17.8
2022-09-01T08:24:44.299Z,17.82
2022-09-01T08:25:46.000Z,17.83
2022-09-01T08:26:47.745Z,17.86
2022-09-01T08:27:49.500Z,17.87
2022-09-01T08:28:55.290Z,17.9
2022-09-01T08:29:52.920Z,17.89
2022-09-01T08:30:54.710Z,17.9
2022-09-01T08:31:58.539Z,17.93
2022-09-01T08:32:58.113Z,17.95
2022-09-01T08:33:59.818Z,17.98
2022-09-01T08:35:01.559Z,18.01
2022-09-01T08:36:04.310Z,18.07
2022-09-01T08:37:05.017Z,18.1
2022-09-01T08:38:06.725Z,18.14
2022-09-01T08:39:08.457Z,18.19
2022-09-01T08:40:10.202Z,18.22
2022-09-01T08:41:11.909Z,18.26
2022-09-01T08:42:13.632Z,18.31
2022-09-01T08:43:15.700Z,18.35
2022-09-01T08:44:17.072Z,18.39
2022-09-01T08:45:18.807Z,18.42
2022-09-01T08:46:20.598Z,18.47
2022-09-01T08:47:35.480Z,18.54
2022-09-01T08:49:26.904Z,18.65
2022-09-01T08:50:27.311Z,18.71
2022-09-01T08:51:29.051Z,18.76
2022-09-01T08:52:30.785Z,18.79
2022-09-01T08:53:32.808Z,18.82
2022-09-01T08:54:37.427Z,18.86
2022-09-01T08:55:39.404Z,18.89
2022-09-01T08:56:40.578Z,18.9
2022-09-01T08:59:02.749Z,18.93
2022-09-01T09:00:02.982Z,18.96
2022-09-01T09:01:04.661Z,18.97
2022-09-01T09:02:36.529Z,18.97
2022-09-01T09:03:41.093Z,19
2022-09-01T09:04:38.743Z,19.01
2022-09-01T09:05:40.473Z,19.02
2022-09-01T09:06:42.212Z,19.04
2022-09-01T09:07:43.903Z,19.05
2022-09-01T09:08:45.670Z,19.06
2022-09-01T09:09:53.173Z,19.07
2022-09-01T09:10:49.073Z,19.08
2022-09-01T09:11:50.800Z,19.1
2022-09-01T09:12:52.554Z,19.1
2022-09-01T09:13:54.283Z,19.12
2022-09-01T09:14:56.026Z,19.11
2022-09-01T09:16:07.200Z,19.11
2022-09-01T09:16:59.471Z,19.1
2022-09-01T09:18:01.208Z,19.1
2022-09-01T09:19:03.568Z,19.11
2022-09-01T09:20:04.682Z,19.08
2022-09-01T09:21:06.491Z,19.07
2022-09-01T09:22:08.144Z,19.04
2022-09-01T09:23:09.894Z,19.07
2022-09-01T09:24:11.609Z,19.08
2022-09-01T09:25:13.351Z,19.14
2022-09-01T09:26:16.691Z,19.16
2022-09-01T09:27:16.815Z,19.2
2022-09-01T09:28:18.543Z,19.22
2022-09-01T09:29:20.289Z,19.24
2022-09-01T09:30:22.031Z,19.26
2022-09-01T09:31:23.843Z,19.29
2022-09-01T09:32:39.778Z,19.31
2022-09-01T09:33:51.109Z,19.34
2022-09-01T09:34:28.958Z,19.36
2022-09-01T09:35:31.594Z,19.36
2022-09-01T09:36:32.421Z,19.4
2022-09-01T09:37:34.167Z,19.44
2022-09-01T09:38:35.917Z,19.48
2022-09-01T09:39:37.636Z,19.58
2022-09-01T09:41:00.072Z,19.65
2022-09-01T09:41:41.174Z,19.78
2022-09-01T09:42:42.847Z,19.96
2022-09-01T09:43:45.411Z,20.14
2022-09-01T09:44:46.299Z,20.32
2022-09-01T09:45:48.092Z,20.44
2022-09-01T09:46:52.964Z,20.58
2022-09-01T09:47:54.663Z,20.62
2022-09-01T09:48:56.346Z,20.75
2022-09-01T09:49:58.081Z,20.81
2022-09-01T09:50:59.804Z,20.87
2022-09-01T09:52:01.539Z,20.91
2022-09-01T09:53:03.256Z,20.98
2022-09-01T09:54:05.033Z,21.08
2022-09-01T09:55:06.746Z,21.16
2022-09-01T09:56:08.487Z,21.25
2022-09-01T09:57:10.298Z,21.32
2022-09-01T09:58:11.948Z,21.42
2022-09-01T09:59:13.676Z,21.49
2022-09-01T10:00:15.427Z,21.49
2022-09-01T10:01:17.931Z,21.54
2022-09-01T10:02:18.882Z,21.58
2022-09-01T10:03:20.720Z,21.62
2022-09-01T10:04:22.400Z,21.66
2022-09-01T10:05:24.125Z,21.69
2022-09-01T10:06:25.826Z,21.69
2022-09-01T10:07:27.566Z,21.7
2022-09-01T10:08:29.294Z,21.69
2022-09-01T10:09:31.041Z,21.7
2022-09-01T10:10:32.776Z,21.72
2022-09-01T10:11:35.598Z,21.7
2022-09-01T10:12:36.227Z,21.74
2022-09-01T10:13:51.482Z,21.77
2022-09-01T10:14:53.694Z,21.8
2022-09-01T10:15:54.150Z,21.87
2022-09-01T10:16:55.931Z,21.93
2022-09-01T10:18:20.020Z,21.92
2022-09-01T10:18:59.336Z,21.9
2022-09-01T10:20:01.098Z,21.89
2022-09-01T10:21:04.221Z,21.96
2022-09-01T10:22:04.535Z,22.05
2022-09-01T10:23:06.276Z,22.11
2022-09-01T10:24:21.159Z,22.11
2022-09-01T10:25:10.504Z,22.1
2022-09-01T10:26:11.476Z,22.14
2022-09-01T10:27:15.395Z,22.18
2022-09-01T10:28:20.972Z,22.21
2022-09-01T10:29:16.682Z,22.25
2022-09-01T10:30:19.764Z,22.25
2022-09-01T10:31:20.269Z,22.29
2022-09-01T10:32:36.929Z,22.33
2022-09-01T10:33:23.657Z,22.39
2022-09-01T10:34:25.845Z,22.34
2022-09-01T10:35:27.100Z,22.39
2022-09-01T10:36:28.818Z,22.45
2022-09-01T10:37:30.546Z,22.49
2022-09-01T10:38:32.276Z,22.54
2022-09-01T10:39:38.159Z,22.59
2022-09-01T10:40:35.855Z,22.63
2022-09-01T10:41:39.000Z,22.67
2022-09-01T10:42:39.211Z,22.71
2022-09-01T10:43:40.953Z,22.73
2022-09-01T10:44:42.694Z,22.78
2022-09-01T10:45:44.498Z,22.84
2022-09-01T10:46:50.229Z,22.88
2022-09-01T10:47:47.919Z,22.92
2022-09-01T10:48:55.348Z,22.96
2022-09-01T10:49:51.366Z,22.95
2022-09-01T10:50:53.115Z,22.99
2022-09-01T10:51:56.537Z,23.03
2022-09-01T10:52:56.564Z,23.05
2022-09-01T10:54:02.160Z,23.04
2022-09-01T10:55:00.047Z,23.09
2022-09-01T10:56:02.722Z,23.12
2022-09-01T10:57:08.892Z,23.15
2022-09-01T10:59:31.312Z,23.19
2022-09-01T10:59:35.598Z,23.22
2022-09-01T11:00:34.754Z,23.24
2022-09-01T11:01:11.093Z,23.26
2022-09-01T11:02:28.504Z,23.24
2022-09-01T11:03:31.513Z,23.27
2022-09-01T11:04:15.792Z,23.24
2022-09-01T11:05:17.540Z,23.21
2022-09-01T11:06:19.136Z,23.18
2022-09-01T11:07:38.935Z,23.16
2022-09-01T11:08:22.687Z,23.14
2022-09-01T11:09:24.321Z,23.12
2022-09-01T11:10:33.088Z,23.13
2022-09-01T11:11:27.805Z,23.15
2022-09-01T11:12:30.175Z,23.16
2022-09-01T11:13:31.264Z,23.19
2022-09-01T11:14:32.988Z,23.23
2022-09-01T11:15:35.457Z,23.25
2022-09-01T11:16:49.157Z,23.26
2022-09-01T11:17:38.251Z,23.28
2022-09-01T11:18:39.931Z,23.32
2022-09-01T11:19:41.733Z,23.35
2022-09-01T11:20:43.905Z,23.34
2022-09-01T11:21:45.123Z,23.36
2022-09-01T11:22:46.874Z,23.36
2022-09-01T11:23:48.587Z,23.39
2022-09-01T11:24:58.071Z,23.4
2022-09-01T11:26:18.862Z,23.44
2022-09-01T11:26:53.804Z,23.47
2022-09-01T11:28:29.240Z,23.54
2022-09-01T11:29:30.979Z,23.58
2022-09-01T11:30:32.739Z,23.61
2022-09-01T11:31:34.534Z,23.67
2022-09-01T11:33:50.326Z,23.76
2022-09-01T11:34:52.068Z,23.79
2022-09-01T11:35:53.825Z,23.81
2022-09-01T11:36:55.604Z,23.85
2022-09-01T11:37:57.271Z,23.84
2022-09-01T11:38:59.002Z,23.88
2022-09-01T11:40:00.746Z,23.89
2022-09-01T11:41:07.528Z,23.92
2022-09-01T11:42:04.706Z,23.92
2022-09-01T11:43:05.955Z,23.91
2022-09-01T11:44:07.684Z,23.9
2022-09-01T11:45:12.775Z,23.92
2022-09-01T11:46:14.575Z,23.92
2022-09-01T11:48:27.361Z,23.88
2022-09-01T11:49:29.032Z,23.8
2022-09-01T11:50:30.748Z,23.79
2022-09-01T11:51:32.539Z,23.8
2022-09-01T11:52:34.210Z,23.84
2022-09-01T11:53:35.972Z,23.87
2022-09-01T11:54:37.683Z,23.88
2022-09-01T11:55:39.430Z,23.87
2022-09-01T11:56:41.181Z,23.91
2022-09-01T11:57:42.896Z,23.95
2022-09-01T11:58:44.628Z,23.99
2022-09-01T11:59:46.397Z,24.02
2022-09-01T12:00:48.117Z,24.03
2022-09-01T12:01:49.922Z,23.98
2022-09-01T12:02:51.674Z,24
2022-09-01T12:03:53.341Z,24.01
2022-09-01T12:04:55.057Z,23.99
2022-09-01T12:07:10.947Z,23.84
2022-09-01T12:08:11.847Z,23.84
2022-09-01T12:09:13.557Z,23.69
2022-09-01T12:10:15.324Z,23.74
2022-09-01T12:11:17.100Z,23.73
2022-09-01T12:12:18.796Z,23.72
2022-09-01T12:13:20.660Z,23.74
2022-09-01T12:14:22.248Z,23.78
2022-09-01T12:15:24.020Z,23.78
2022-09-01T12:16:25.824Z,23.77
2022-09-01T12:17:27.460Z,23.77
2022-09-01T12:18:29.192Z,23.76
2022-09-01T12:19:30.919Z,23.79
2022-09-01T12:20:34.094Z,23.82
2022-09-01T12:21:34.415Z,23.8
2022-09-01T12:22:36.142Z,23.8
2022-09-01T12:23:37.886Z,23.87
2022-09-01T12:24:39.617Z,23.86
2022-09-01T12:25:41.341Z,23.9
2022-09-01T12:26:43.079Z,23.89
2022-09-01T12:27:44.802Z,23.89
2022-09-01T12:28:46.558Z,23.78
2022-09-01T12:29:48.273Z,23.8
2022-09-01T12:30:50.061Z,23.75
2022-09-01T12:31:51.798Z,23.75
2022-09-01T12:33:22.776Z,23.77
2022-09-01T12:33:56.571Z,23.77
2022-09-01T12:34:56.944Z,23.78
2022-09-01T12:35:59.627Z,23.77
2022-09-01T12:37:10.709Z,23.76
2022-09-01T12:38:12.588Z,23.74
2022-09-01T12:39:14.180Z,23.72
2022-09-01T12:40:15.924Z,23.69
2022-09-01T12:41:17.687Z,23.73
2022-09-01T12:42:19.410Z,23.72
2022-09-01T12:43:21.317Z,23.68
2022-09-01T12:44:22.848Z,23.68
2022-09-01T12:45:24.589Z,23.7
2022-09-01T12:46:26.326Z,23.7
2022-09-01T12:47:28.076Z,23.72
2022-09-01T12:48:29.790Z,23.74
2022-09-01T12:49:31.531Z,23.78
2022-09-01T12:50:33.268Z,23.83
2022-09-01T12:51:35.010Z,23.89
2022-09-01T12:52:36.735Z,23.94
2022-09-01T12:53:38.485Z,23.96
2022-09-01T12:54:40.211Z,23.98
2022-09-01T12:55:48.560Z,24
2022-09-01T12:56:43.684Z,24
2022-09-01T12:57:45.435Z,23.99
2022-09-01T12:58:47.227Z,23.95
2022-09-01T12:59:48.981Z,23.93
2022-09-01T13:00:50.846Z,23.89
2022-09-01T13:01:52.549Z,23.84
2022-09-01T13:02:54.249Z,23.79
2022-09-01T13:03:55.909Z,23.76
2022-09-01T13:04:57.645Z,23.75
2022-09-01T13:05:59.918Z,23.73
2022-09-01T13:07:01.124Z,23.74
2022-09-01T13:08:02.860Z,23.76
2022-09-01T13:09:04.574Z,23.79
2022-09-01T13:10:07.293Z,23.82
2022-09-01T13:11:08.099Z,23.82
2022-09-01T13:12:09.779Z,23.83
2022-09-01T13:13:11.517Z,23.85
2022-09-01T13:14:18.541Z,23.86
2022-09-01T13:15:20.115Z,23.86
2022-09-01T13:16:21.912Z,23.9
2022-09-01T13:17:23.974Z,23.92
2022-09-01T13:18:25.629Z,23.96
2022-09-01T13:19:30.404Z,23.99
2022-09-01T13:20:28.799Z,24.04
2022-09-01T13:21:30.677Z,24.06
2022-09-01T13:22:32.271Z,24.09
2022-09-01T13:23:34.003Z,24.11
2022-09-01T13:24:35.753Z,24.12
2022-09-01T13:25:37.468Z,24.17
2022-09-01T13:26:39.195Z,24.16
2022-09-01T13:27:40.945Z,24.16
2022-09-01T13:28:42.685Z,24.16
2022-09-01T13:29:44.451Z,24.14
2022-09-01T13:32:20.999Z,24.06
2022-09-01T13:33:21.703Z,24.06
2022-09-01T13:34:20.301Z,24.04
2022-09-01T13:40:49.259Z,23.83
2022-09-01T13:41:50.904Z,23.77
2022-09-01T13:42:52.628Z,23.73
2022-09-01T13:43:54.391Z,23.72